Time;durP1;ratioP1;P1;durP2;ratioP2;P2;SDS_P1;SDS_P2;PMS_P1;PMS_P2;Temp;Humidity;BMP_temperature;BMP_pressure;BME280_temperature;BME280_humidity;BME280_pressure;Samples;Min_cycle;Max_cycle;Signal;HPM_P1;HPM_P2
2022/12/02 00:02:19;;;;;;;52.47;25.95;;;4.30;99.90;;;;;;5070775;28;20281;-75
2022/12/02 00:04:44;;;;;;;55.03;25.88;;;4.30;99.90;;;;;;5075730;28;20185;-75
2022/12/02 00:07:19;;;;;;;56.72;26.65;;;4.40;99.90;;;;;;5076528;28;20296;-75
2022/12/02 00:09:45;;;;;;;56.38;25.50;;;4.40;99.90;;;;;;5057761;28;20182;-75
2022/12/02 00:12:30;;;;;;;53.10;26.85;;;4.40;99.90;;;;;;5054094;28;20298;-75
2022/12/02 00:14:59;;;;;;;51.00;25.45;;;4.40;99.90;;;;;;5070085;28;20171;-76
2022/12/02 00:17:26;;;;;;;57.78;27.10;;;4.40;99.90;;;;;;5070616;28;20187;-76
2022/12/02 00:19:53;;;;;;;56.38;26.75;;;4.50;99.90;;;;;;5068563;28;20179;-75
2022/12/02 00:22:19;;;;;;;57.08;26.70;;;4.40;99.90;;;;;;5073268;28;20237;-74
2022/12/02 00:24:45;;;;;;;60.08;27.05;;;4.40;99.90;;;;;;5072702;28;20190;-75
2022/12/02 00:27:11;;;;;;;53.05;25.77;;;4.40;99.90;;;;;;5061710;28;20202;-75
2022/12/02 00:29:37;;;;;;;54.83;28.05;;;4.40;99.90;;;;;;5063281;28;20183;-78
2022/12/02 00:32:03;;;;;;;56.20;26.45;;;4.40;99.90;;;;;;5074323;28;20190;-75
2022/12/02 00:34:28;;;;;;;57.40;27.67;;;4.40;99.90;;;;;;5074383;28;20215;-75
2022/12/02 00:36:54;;;;;;;54.10;27.80;;;4.40;99.90;;;;;;5073334;28;20388;-75
2022/12/02 00:39:20;;;;;;;50.22;25.00;;;4.40;99.90;;;;;;5089838;28;20182;-75
2022/12/02 00:41:45;;;;;;;57.67;27.27;;;4.40;99.90;;;;;;5060335;28;20189;-75
2022/12/02 00:46:55;;;;;;;55.33;27.27;;;4.40;99.90;;;;;;5089947;28;20222;-75
2022/12/02 00:49:21;;;;;;;57.17;26.98;;;4.50;99.90;;;;;;5074148;28;20206;-75
2022/12/02 00:51:47;;;;;;;60.55;28.58;;;4.40;99.90;;;;;;5069778;28;20201;-75
2022/12/02 00:54:13;;;;;;;54.58;26.30;;;4.50;99.90;;;;;;5073969;28;20269;-75
2022/12/02 00:56:39;;;;;;;56.58;27.05;;;4.50;99.90;;;;;;5071111;28;20186;-75
2022/12/02 00:59:05;;;;;;;57.58;27.10;;;4.50;99.90;;;;;;5074023;28;20670;-74
2022/12/02 01:01:33;;;;;;;53.70;26.58;;;4.50;99.90;;;;;;5056541;28;20844;-79
2022/12/02 01:03:58;;;;;;;51.70;25.02;;;4.50;99.90;;;;;;5055334;28;20206;-78
2022/12/02 01:06:24;;;;;;;52.58;25.65;;;4.40;99.90;;;;;;5066361;28;20190;-75
2022/12/02 01:08:50;;;;;;;48.80;23.25;;;4.40;99.90;;;;;;5074040;28;20197;-75
2022/12/02 01:11:17;;;;;;;51.85;24.42;;;4.40;99.90;;;;;;5086030;28;20187;-75
2022/12/02 01:13:43;;;;;;;47.00;22.65;;;4.40;99.90;;;;;;5056559;28;20257;-79
2022/12/02 01:16:09;;;;;;;49.53;23.05;;;4.30;99.90;;;;;;5085428;28;20214;-76
2022/12/02 01:18:34;;;;;;;49.75;23.40;;;4.30;99.90;;;;;;5074994;28;20178;-75
2022/12/02 01:21:00;;;;;;;50.88;22.23;;;4.20;99.90;;;;;;5089060;28;20182;-76
2022/12/02 01:23:26;;;;;;;45.17;22.00;;;4.20;99.90;;;;;;5070395;28;20206;-75
2022/12/02 01:25:52;;;;;;;49.60;22.92;;;4.20;99.90;;;;;;5078555;28;20251;-76
2022/12/02 01:28:18;;;;;;;50.58;22.83;;;4.30;99.90;;;;;;5073079;28;20202;-74
2022/12/02 01:30:44;;;;;;;46.97;22.25;;;4.20;99.90;;;;;;5073692;28;20179;-78
2022/12/02 01:33:10;;;;;;;47.13;21.30;;;4.20;99.90;;;;;;5072870;28;20213;-75
2022/12/02 01:35:36;;;;;;;45.90;22.88;;;4.20;99.90;;;;;;5070571;28;20269;-75
2022/12/02 01:38:02;;;;;;;48.72;21.83;;;4.20;99.90;;;;;;5040191;28;20216;-74
2022/12/02 01:40:29;;;;;;;53.03;23.13;;;4.20;99.90;;;;;;5059352;28;20187;-75
2022/12/02 01:42:54;;;;;;;48.92;21.25;;;4.20;99.90;;;;;;5073064;28;20214;-75
2022/12/02 01:45:20;;;;;;;53.20;22.88;;;4.20;99.90;;;;;;5072922;28;20190;-74
2022/12/02 01:47:46;;;;;;;48.03;21.92;;;4.10;99.90;;;;;;5066344;28;20656;-74
2022/12/02 01:50:13;;;;;;;53.20;23.27;;;4.10;99.90;;;;;;5087836;28;20189;-74
2022/12/02 01:52:39;;;;;;;54.97;24.13;;;4.10;99.90;;;;;;5072191;28;20213;-74
2022/12/02 01:55:10;;;;;;;53.90;24.10;;;4.10;99.90;;;;;;5086584;28;20179;-74
2022/12/02 01:57:38;;;;;;;56.83;23.90;;;4.10;99.90;;;;;;5059647;28;20268;-75
2022/12/02 02:00:05;;;;;;;54.30;24.67;;;4.10;99.90;;;;;;5048065;28;21281;-75
2022/12/02 02:02:38;;;;;;;52.63;23.45;;;4.10;99.90;;;;;;5071024;28;20198;-74
2022/12/02 02:05:19;;;;;;;53.20;25.00;;;4.10;99.90;;;;;;5079007;28;20686;-75
2022/12/02 02:07:49;;;;;;;51.67;24.02;;;4.10;99.90;;;;;;5063106;28;20182;-74
2022/12/02 02:10:16;;;;;;;57.53;24.92;;;4.10;99.90;;;;;;5080104;28;20270;-75
2022/12/02 02:12:45;;;;;;;57.50;24.70;;;4.10;99.90;;;;;;5071064;28;20245;-75
2022/12/02 02:15:12;;;;;;;52.97;24.88;;;4.10;99.90;;;;;;5072040;28;20641;-75
2022/12/02 02:17:38;;;;;;;60.03;25.38;;;4.20;99.90;;;;;;5073564;28;20193;-75
2022/12/02 02:20:08;;;;;;;57.25;25.52;;;4.20;99.90;;;;;;5072667;28;20174;-79
2022/12/02 02:22:43;;;;;;;60.10;25.63;;;4.20;99.90;;;;;;5053103;28;20210;-75
2022/12/02 02:25:12;;;;;;;60.97;24.90;;;4.30;99.90;;;;;;5075819;28;20198;-75
2022/12/02 02:27:39;;;;;;;53.97;25.23;;;4.30;99.90;;;;;;5067227;28;20220;-75
2022/12/02 02:30:06;;;;;;;55.25;24.27;;;4.30;99.90;;;;;;5066890;28;20190;-75
2022/12/02 02:32:32;;;;;;;63.92;26.58;;;4.20;99.90;;;;;;5071135;28;20194;-74
2022/12/02 02:34:58;;;;;;;54.70;25.05;;;4.20;99.90;;;;;;5087975;28;20243;-75
2022/12/02 02:37:24;;;;;;;56.25;25.33;;;4.20;99.90;;;;;;5071919;28;20634;-75
2022/12/02 02:39:51;;;;;;;60.25;26.30;;;4.10;99.90;;;;;;5060050;28;20240;-75
2022/12/02 02:42:17;;;;;;;59.35;26.33;;;4.10;99.90;;;;;;5055650;28;20221;-75
2022/12/02 02:44:43;;;;;;;60.28;26.20;;;4.10;99.90;;;;;;5085527;28;20190;-74
2022/12/02 02:47:09;;;;;;;59.50;26.58;;;4.10;99.90;;;;;;5069949;28;20205;-75
2022/12/02 02:49:35;;;;;;;61.30;26.38;;;4.10;99.90;;;;;;5082923;28;20183;-75
2022/12/02 02:52:01;;;;;;;54.92;25.85;;;4.00;99.90;;;;;;5086484;28;20183;-75
2022/12/02 02:54:27;;;;;;;61.97;24.70;;;4.00;99.90;;;;;;5071606;28;20183;-75
2022/12/02 02:56:53;;;;;;;57.88;26.45;;;4.00;99.90;;;;;;5063401;28;20618;-75
2022/12/02 02:59:19;;;;;;;52.25;23.90;;;4.00;99.90;;;;;;5052815;28;20220;-81
2022/12/02 03:01:49;;;;;;;55.90;24.95;;;4.00;99.90;;;;;;5069159;28;20189;-75
2022/12/02 03:04:18;;;;;;;50.28;24.10;;;4.00;99.90;;;;;;5087261;28;20247;-76
2022/12/02 03:06:46;;;;;;;53.50;22.98;;;3.90;99.90;;;;;;5066917;28;20325;-75
2022/12/02 03:09:16;;;;;;;48.10;22.60;;;3.90;99.90;;;;;;5067269;28;20240;-74
2022/12/02 03:11:44;;;;;;;52.75;24.63;;;3.90;99.90;;;;;;5068836;28;20626;-75
2022/12/02 03:14:11;;;;;;;52.67;22.60;;;3.80;99.90;;;;;;5070779;28;20308;-76
2022/12/02 03:16:36;;;;;;;56.25;23.90;;;3.80;99.90;;;;;;5070882;28;20332;-76
2022/12/02 03:19:02;;;;;;;54.95;24.10;;;3.80;99.90;;;;;;5061539;28;20277;-76
2022/12/02 03:21:29;;;;;;;48.25;22.90;;;3.80;99.90;;;;;;5060779;28;20670;-76
2022/12/02 03:23:57;;;;;;;52.67;23.55;;;3.80;99.90;;;;;;5072581;28;20610;-76
2022/12/02 03:26:23;;;;;;;50.30;23.08;;;3.70;99.90;;;;;;5071342;28;20269;-75
2022/12/02 03:28:49;;;;;;;49.13;23.20;;;3.70;99.90;;;;;;5064551;28;20180;-76
2022/12/02 03:31:15;;;;;;;51.08;22.58;;;3.70;99.90;;;;;;5057527;28;20199;-77
2022/12/02 03:33:41;;;;;;;54.22;25.15;;;3.70;99.90;;;;;;5060472;28;20187;-76
2022/12/02 03:36:08;;;;;;;49.85;23.65;;;3.70;99.90;;;;;;5071145;28;20206;-77
2022/12/02 03:38:35;;;;;;;52.83;22.85;;;3.70;99.90;;;;;;5070353;28;20265;-77
2022/12/02 03:41:03;;;;;;;54.47;23.42;;;3.70;99.90;;;;;;5060803;28;20178;-76
2022/12/02 03:43:29;;;;;;;54.30;25.17;;;3.70;99.90;;;;;;5071252;28;20202;-76
2022/12/02 03:45:56;;;;;;;50.03;23.05;;;3.70;99.90;;;;;;5055424;28;20183;-78
2022/12/02 03:48:24;;;;;;;57.65;25.20;;;3.70;99.90;;;;;;5071476;28;20190;-76
2022/12/02 03:50:51;;;;;;;58.20;25.63;;;3.70;99.90;;;;;;5069253;28;20209;-79
2022/12/02 03:53:17;;;;;;;57.40;24.10;;;3.60;99.90;;;;;;5070890;28;20191;-75
2022/12/02 03:55:43;;;;;;;57.50;24.08;;;3.70;99.90;;;;;;5071680;28;20206;-80
2022/12/02 03:58:09;;;;;;;62.80;26.15;;;3.70;99.90;;;;;;5075054;28;20624;-76
2022/12/02 04:00:36;;;;;;;61.50;25.73;;;3.60;99.90;;;;;;5072985;28;20186;-76
2022/12/02 04:03:03;;;;;;;58.92;25.20;;;3.60;99.90;;;;;;5074757;28;20233;-76
2022/12/02 04:05:29;;;;;;;51.17;23.17;;;3.60;99.90;;;;;;5084647;28;20235;-80
2022/12/02 04:07:54;;;;;;;56.22;23.85;;;3.60;99.90;;;;;;5074182;28;20182;-77
2022/12/02 04:10:20;;;;;;;54.97;23.52;;;3.60;99.90;;;;;;5071574;28;20291;-76
2022/12/02 04:12:46;;;;;;;58.10;23.65;;;3.60;99.90;;;;;;5058287;28;20244;-77
2022/12/02 04:15:11;;;;;;;56.45;24.02;;;3.60;99.90;;;;;;5072449;28;20212;-77
2022/12/02 04:17:37;;;;;;;62.38;24.35;;;3.60;99.90;;;;;;5071392;28;20300;-77
2022/12/02 04:20:04;;;;;;;58.53;24.60;;;3.60;99.90;;;;;;5091749;28;20175;-76
2022/12/02 04:22:30;;;;;;;52.47;23.50;;;3.60;99.90;;;;;;5059993;28;20209;-80
2022/12/02 04:24:58;;;;;;;64.72;25.77;;;3.60;99.90;;;;;;5067655;28;20190;-77
2022/12/02 04:27:27;;;;;;;56.92;23.23;;;3.60;99.90;;;;;;5068324;28;20179;-76
2022/12/02 04:29:53;;;;;;;65.47;26.10;;;3.60;99.90;;;;;;5072891;28;20586;-76
2022/12/02 04:32:19;;;;;;;61.97;24.50;;;3.60;99.90;;;;;;5071422;28;20225;-79
2022/12/02 04:34:45;;;;;;;72.35;26.20;;;3.60;99.90;;;;;;5074526;28;20175;-75
2022/12/02 04:37:11;;;;;;;59.53;25.40;;;3.60;99.90;;;;;;5074388;28;20251;-78
2022/12/02 04:39:37;;;;;;;61.83;25.60;;;3.60;99.90;;;;;;5075454;28;20256;-76
2022/12/02 04:42:03;;;;;;;65.95;23.92;;;3.70;99.90;;;;;;5070257;28;20182;-79
2022/12/02 04:44:28;;;;;;;60.08;25.70;;;3.70;99.90;;;;;;5062021;28;20330;-79
2022/12/02 04:46:54;;;;;;;61.50;25.40;;;3.70;99.90;;;;;;5072626;28;20195;-76
2022/12/02 04:49:20;;;;;;;70.82;27.63;;;3.60;99.90;;;;;;5075268;28;20261;-76
2022/12/02 04:51:46;;;;;;;62.58;25.63;;;3.60;99.90;;;;;;5074210;28;20243;-77
2022/12/02 04:54:11;;;;;;;59.78;25.45;;;3.60;99.90;;;;;;5074610;28;20190;-78
2022/12/02 04:56:37;;;;;;;58.60;25.35;;;3.60;99.90;;;;;;5071257;28;20197;-75
2022/12/02 04:59:03;;;;;;;65.72;27.63;;;3.70;99.90;;;;;;5062474;28;20315;-76
2022/12/02 05:01:28;;;;;;;64.30;26.73;;;3.70;99.90;;;;;;5059398;28;20203;-76
2022/12/02 05:03:54;;;;;;;63.13;26.25;;;3.70;99.90;;;;;;5065542;28;20251;-80
2022/12/02 05:06:20;;;;;;;65.18;27.67;;;3.70;99.90;;;;;;5069207;28;20183;-76
2022/12/02 05:08:46;;;;;;;63.22;26.15;;;3.80;99.90;;;;;;5068578;28;20190;-78
2022/12/02 05:11:11;;;;;;;66.38;27.50;;;3.70;99.90;;;;;;5073099;28;20241;-75
2022/12/02 05:13:37;;;;;;;63.53;26.73;;;3.70;99.90;;;;;;5070211;28;20674;-74
2022/12/02 05:16:03;;;;;;;63.58;26.42;;;3.70;99.90;;;;;;5056793;28;20887;-75
2022/12/02 05:18:29;;;;;;;66.55;27.38;;;3.70;99.90;;;;;;5073795;28;20269;-75
2022/12/02 05:20:54;;;;;;;61.90;26.63;;;3.70;99.90;;;;;;5063565;28;20611;-75
2022/12/02 05:23:20;;;;;;;63.90;27.42;;;3.70;99.90;;;;;;5054778;28;20208;-75
2022/12/02 05:25:46;;;;;;;66.35;27.58;;;3.70;99.90;;;;;;5056132;28;20197;-76
2022/12/02 05:28:11;;;;;;;66.05;27.55;;;3.80;99.90;;;;;;5070296;28;20197;-75
2022/12/02 05:30:37;;;;;;;67.40;27.48;;;3.80;99.90;;;;;;5072366;28;20567;-75
2022/12/02 05:33:03;;;;;;;72.38;27.88;;;3.80;99.90;;;;;;5071523;28;20653;-75
2022/12/02 05:35:28;;;;;;;65.40;27.55;;;3.80;99.90;;;;;;5071721;28;20551;-76
2022/12/02 05:37:55;;;;;;;70.32;27.75;;;3.80;99.90;;;;;;5085600;28;20706;-77
2022/12/02 05:40:20;;;;;;;74.50;29.50;;;3.80;99.90;;;;;;5069830;28;20183;-75
2022/12/02 05:42:46;;;;;;;64.68;28.08;;;3.80;99.90;;;;;;5069935;28;20220;-75
2022/12/02 05:45:14;;;;;;;73.20;29.23;;;3.80;99.90;;;;;;5068608;28;20206;-76
2022/12/02 05:47:40;;;;;;;72.35;28.40;;;3.80;99.90;;;;;;5055556;28;20316;-74
2022/12/02 05:50:10;;;;;;;75.78;28.95;;;3.80;99.90;;;;;;5066140;28;20232;-75
2022/12/02 05:52:36;;;;;;;76.93;28.63;;;3.80;99.90;;;;;;5072187;28;20265;-76
2022/12/02 05:55:11;;;;;;;73.95;28.85;;;3.80;99.90;;;;;;5071272;28;20678;-76
2022/12/02 05:57:37;;;;;;;80.60;29.15;;;3.80;99.90;;;;;;5060281;28;20179;-75
2022/12/02 06:00:15;;;;;;;74.63;28.45;;;3.80;99.90;;;;;;5073079;28;20521;-81
2022/12/02 06:02:59;;;;;;;78.22;27.90;;;3.80;99.90;;;;;;5068053;28;20210;-75
2022/12/02 06:05:35;;;;;;;72.82;27.20;;;3.80;99.90;;;;;;5082953;28;20629;-74
2022/12/02 06:08:21;;;;;;;79.72;28.00;;;3.80;99.90;;;;;;5072410;28;20186;-75
2022/12/02 06:11:02;;;;;;;73.65;28.08;;;3.80;99.90;;;;;;5073053;28;20181;-76
2022/12/02 06:13:34;;;;;;;79.88;29.50;;;3.80;99.90;;;;;;5073530;28;20230;-75
2022/12/02 06:16:00;;;;;;;79.75;30.40;;;3.80;99.90;;;;;;5070766;28;20687;-81
2022/12/02 06:18:33;;;;;;;79.80;29.27;;;3.80;99.90;;;;;;5058671;28;20194;-74
2022/12/02 06:21:02;;;;;;;73.20;29.80;;;3.80;99.90;;;;;;5059193;28;20207;-74
2022/12/02 06:23:31;;;;;;;74.38;28.77;;;3.80;99.90;;;;;;5087142;28;20214;-76
2022/12/02 06:25:58;;;;;;;69.80;27.27;;;3.80;99.90;;;;;;5063409;28;20187;-85
2022/12/02 06:28:31;;;;;;;76.28;29.55;;;3.80;99.90;;;;;;5056778;28;20190;-74
2022/12/02 06:31:00;;;;;;;82.20;30.55;;;3.80;99.90;;;;;;5061463;28;20221;-76
2022/12/02 06:33:31;;;;;;;81.75;29.55;;;3.80;99.90;;;;;;5070775;28;20610;-74
2022/12/02 06:36:01;;;;;;;80.20;30.60;;;3.80;99.90;;;;;;5064140;28;20228;-75
2022/12/02 06:38:29;;;;;;;90.20;30.83;;;3.90;99.90;;;;;;5068197;28;20187;-75
2022/12/02 06:40:59;;;;;;;83.28;30.20;;;3.80;99.90;;;;;;5061292;28;20183;-79
2022/12/02 06:43:29;;;;;;;73.28;28.98;;;3.90;99.90;;;;;;5073167;28;20732;-75
2022/12/02 06:45:55;;;;;;;76.28;29.60;;;3.90;99.90;;;;;;5070426;28;20194;-77
2022/12/02 06:48:29;;;;;;;83.93;30.13;;;3.90;99.90;;;;;;5062930;28;20175;-76
2022/12/02 06:51:04;;;;;;;80.45;29.55;;;3.90;99.90;;;;;;5055339;28;20183;-76
2022/12/02 06:53:35;;;;;;;77.28;29.45;;;3.90;99.90;;;;;;5076826;28;20771;-79
2022/12/02 06:56:09;;;;;;;84.28;30.75;;;3.90;99.90;;;;;;5059552;28;20193;-76
2022/12/02 06:58:42;;;;;;;79.30;29.63;;;3.90;99.90;;;;;;5073081;28;20606;-75
2022/12/02 07:01:19;;;;;;;79.38;28.63;;;3.90;99.90;;;;;;5071482;28;20720;-77
2022/12/02 07:03:57;;;;;;;78.30;30.40;;;3.90;99.90;;;;;;5066808;28;20210;-77
2022/12/02 07:06:25;;;;;;;77.10;29.77;;;3.90;99.90;;;;;;5063877;28;20707;-76
2022/12/02 07:08:54;;;;;;;77.45;30.42;;;3.90;99.90;;;;;;5072638;28;20227;-76
2022/12/02 07:14:39;;;;;;;84.88;30.40;;;4.00;99.90;;;;;;5058251;28;20231;-76
2022/12/02 07:17:26;;;;;;;79.53;29.02;;;4.00;99.90;;;;;;5066508;28;20189;-75
2022/12/02 07:19:58;;;;;;;75.50;28.25;;;4.00;99.90;;;;;;5072538;28;20201;-75
2022/12/02 07:22:33;;;;;;;72.18;28.20;;;4.00;99.90;;;;;;5070818;28;20210;-76
2022/12/02 07:25:20;;;;;;;71.55;28.05;;;4.00;99.90;;;;;;5058353;28;20189;-76
2022/12/02 07:27:48;;;;;;;74.07;28.58;;;4.00;99.90;;;;;;5071300;28;20174;-76
2022/12/02 07:30:34;;;;;;;69.63;26.95;;;4.00;99.90;;;;;;5071164;28;20182;-76
2022/12/02 07:33:00;;;;;;;53.83;21.05;;;4.00;99.90;;;;;;5056279;28;20929;-76
2022/12/02 07:35:27;;;;;;;81.03;30.25;;;4.00;99.90;;;;;;5073621;28;20191;-75
2022/12/02 07:37:53;;;;;;;65.60;27.60;;;4.00;99.90;;;;;;5063751;28;20273;-75
2022/12/02 07:40:19;;;;;;;72.35;27.83;;;3.90;99.90;;;;;;5053273;28;20183;-80
2022/12/02 07:42:46;;;;;;;69.20;27.52;;;4.00;99.90;;;;;;5055974;28;20214;-75
2022/12/02 07:45:14;;;;;;;76.30;28.63;;;3.90;99.90;;;;;;5075901;28;20630;-73
2022/12/02 07:47:40;;;;;;;68.88;27.48;;;3.90;99.90;;;;;;5071036;28;20182;-74
2022/12/02 07:50:06;;;;;;;70.63;29.63;;;3.90;99.90;;;;;;5068961;28;20657;-74
2022/12/02 07:52:32;;;;;;;76.40;31.25;;;3.90;99.90;;;;;;5072075;28;20186;-72
2022/12/02 07:54:59;;;;;;;79.22;28.30;;;3.90;99.90;;;;;;5073261;28;20270;-74
2022/12/02 07:57:25;;;;;;;83.03;31.50;;;3.90;99.90;;;;;;5070316;28;20179;-76
2022/12/02 07:59:51;;;;;;;67.93;27.50;;;3.80;99.90;;;;;;5070498;28;20622;-75
2022/12/02 08:02:17;;;;;;;76.63;28.42;;;3.80;99.90;;;;;;5068946;28;20183;-75
2022/12/02 08:04:43;;;;;;;70.75;29.42;;;3.70;99.90;;;;;;5072415;28;20655;-76
2022/12/02 08:07:08;;;;;;;71.35;28.25;;;3.70;99.90;;;;;;5066449;28;20187;-75
2022/12/02 08:09:35;;;;;;;63.15;25.13;;;3.70;99.90;;;;;;5063147;28;20240;-79
2022/12/02 08:12:01;;;;;;;67.78;25.52;;;3.70;99.90;;;;;;5063764;28;20222;-74
2022/12/02 08:14:27;;;;;;;60.75;24.85;;;3.60;99.90;;;;;;5061203;28;20517;-73
2022/12/02 08:16:52;;;;;;;62.65;25.80;;;3.60;99.90;;;;;;5064445;28;20186;-76
2022/12/02 08:19:18;;;;;;;61.30;23.95;;;3.60;99.90;;;;;;5064242;28;20187;-78
2022/12/02 08:21:44;;;;;;;56.38;22.02;;;3.50;99.90;;;;;;5064726;28;20194;-73
2022/12/02 08:24:10;;;;;;;62.50;24.63;;;3.60;99.90;;;;;;5059321;28;22660;-74
2022/12/02 08:26:35;;;;;;;64.10;24.17;;;3.60;99.90;;;;;;5063430;28;20305;-73
2022/12/02 08:29:01;;;;;;;55.72;22.67;;;3.50;99.90;;;;;;5057189;28;20191;-78
2022/12/02 08:31:27;;;;;;;54.45;22.20;;;3.50;99.90;;;;;;5057230;28;20186;-77
2022/12/02 08:33:53;;;;;;;62.05;23.13;;;3.40;99.90;;;;;;5055659;28;20191;-74
2022/12/02 08:36:20;;;;;;;65.22;22.52;;;3.40;99.90;;;;;;5064882;28;20190;-73
2022/12/02 08:38:46;;;;;;;68.65;23.50;;;3.30;99.90;;;;;;5067218;28;20193;-73
2022/12/02 08:41:12;;;;;;;60.00;25.30;;;3.30;99.90;;;;;;5068439;28;20195;-74
2022/12/02 08:43:38;;;;;;;67.05;25.52;;;3.20;99.90;;;;;;5068229;28;20284;-73
2022/12/02 08:46:05;;;;;;;60.95;23.70;;;3.20;99.90;;;;;;5066722;28;21024;-74
2022/12/02 08:48:30;;;;;;;60.08;23.58;;;3.20;99.90;;;;;;5075156;28;20653;-75
2022/12/02 08:50:56;;;;;;;57.75;24.33;;;3.20;99.90;;;;;;5074352;28;20171;-78
2022/12/02 08:53:22;;;;;;;61.58;25.33;;;3.20;99.90;;;;;;5056197;28;20642;-76
2022/12/02 08:55:48;;;;;;;60.58;23.42;;;3.20;99.90;;;;;;5061978;28;20194;-75
2022/12/02 08:58:13;;;;;;;59.58;23.42;;;3.20;99.90;;;;;;5061447;28;20186;-75
2022/12/02 09:00:39;;;;;;;61.25;24.63;;;3.20;99.90;;;;;;5068889;28;20186;-74
2022/12/02 09:03:07;;;;;;;55.50;22.83;;;3.20;99.90;;;;;;5070358;28;20226;-78
2022/12/02 09:05:33;;;;;;;63.65;23.77;;;3.20;99.90;;;;;;5073886;28;20209;-73
2022/12/02 09:07:59;;;;;;;63.55;25.95;;;3.10;99.90;;;;;;5071921;28;20252;-75
2022/12/02 09:10:25;;;;;;;57.45;22.83;;;3.20;99.90;;;;;;5073418;28;20621;-75
2022/12/02 09:12:52;;;;;;;65.90;25.73;;;3.20;99.90;;;;;;5070291;28;20562;-76
2022/12/02 09:15:19;;;;;;;62.17;23.35;;;3.20;99.90;;;;;;5067765;28;20182;-75
2022/12/02 09:17:45;;;;;;;63.90;21.80;;;3.10;99.90;;;;;;5069288;28;20186;-78
2022/12/02 09:20:12;;;;;;;66.07;22.77;;;3.20;99.90;;;;;;5069723;28;20182;-75
2022/12/02 09:22:38;;;;;;;63.88;22.58;;;3.10;99.90;;;;;;5068718;28;20233;-78
2022/12/02 09:25:04;;;;;;;60.45;22.40;;;3.10;99.90;;;;;;5062064;28;20193;-77
2022/12/02 09:27:30;;;;;;;60.92;22.75;;;3.10;99.90;;;;;;5066990;28;20178;-76
2022/12/02 09:29:56;;;;;;;70.78;26.00;;;3.10;99.90;;;;;;5063701;28;20190;-74
2022/12/02 09:32:22;;;;;;;62.35;24.38;;;3.10;99.90;;;;;;5088665;28;20187;-73
2022/12/02 09:34:48;;;;;;;63.22;23.70;;;3.20;99.90;;;;;;5074682;28;20175;-74
2022/12/02 09:37:13;;;;;;;73.63;24.85;;;3.10;99.90;;;;;;5062158;28;20237;-74
2022/12/02 09:39:39;;;;;;;68.30;24.13;;;3.10;99.90;;;;;;5057071;28;20187;-75
2022/12/02 09:42:06;;;;;;;68.75;25.67;;;3.20;99.90;;;;;;5058979;28;20186;-73
2022/12/02 09:44:32;;;;;;;65.00;24.60;;;3.10;99.90;;;;;;5077787;28;20194;-74
2022/12/02 09:46:59;;;;;;;73.28;25.05;;;3.10;99.90;;;;;;5077604;28;20569;-73
2022/12/02 09:49:25;;;;;;;66.25;23.55;;;3.20;99.90;;;;;;5071591;28;20167;-73
2022/12/02 09:51:52;;;;;;;60.67;23.73;;;3.20;99.90;;;;;;5072995;28;20194;-77
2022/12/02 09:54:18;;;;;;;68.28;23.63;;;3.20;99.90;;;;;;5064543;28;20244;-78
2022/12/02 09:56:43;;;;;;;62.00;23.98;;;3.20;99.90;;;;;;5063938;28;20183;-74
2022/12/02 09:59:15;;;;;;;56.10;21.10;;;3.20;99.90;;;;;;5073102;28;20182;-73
2022/12/02 10:01:46;;;;;;;66.57;25.23;;;3.30;99.90;;;;;;5072306;28;20240;-73
2022/12/02 10:04:18;;;;;;;56.58;23.50;;;3.30;99.90;;;;;;5070310;28;20221;-74
2022/12/02 10:06:44;;;;;;;59.17;22.27;;;3.30;99.90;;;;;;5064423;28;20281;-76
2022/12/02 10:09:26;;;;;;;58.50;22.77;;;3.30;99.90;;;;;;5067351;28;20261;-75
2022/12/02 10:11:52;;;;;;;57.25;22.33;;;3.30;99.90;;;;;;5070303;28;20201;-74
2022/12/02 10:14:18;;;;;;;58.90;24.05;;;3.30;99.90;;;;;;5070814;28;20276;-74
2022/12/02 10:16:44;;;;;;;52.38;22.27;;;3.30;99.90;;;;;;5068978;28;20205;-74
2022/12/02 10:19:16;;;;;;;52.15;21.15;;;3.30;99.90;;;;;;5061999;28;20194;-74
2022/12/02 10:21:42;;;;;;;58.20;25.42;;;3.30;99.90;;;;;;5070003;28;20182;-74
2022/12/02 10:24:10;;;;;;;60.35;24.25;;;3.30;99.90;;;;;;5053696;28;20218;-73
2022/12/02 10:26:50;;;;;;;68.30;26.52;;;3.30;99.90;;;;;;5057172;28;20525;-73
2022/12/02 10:29:24;;;;;;;59.88;25.63;;;3.30;99.90;;;;;;5063598;28;20201;-74
2022/12/02 10:31:59;;;;;;;59.03;24.75;;;3.40;99.90;;;;;;5065538;28;20204;-74
2022/12/02 10:34:27;;;;;;;62.92;25.02;;;3.40;99.90;;;;;;5088651;28;20218;-74
2022/12/02 10:36:53;;;;;;;59.83;24.50;;;3.50;99.90;;;;;;5072502;28;20689;-76
2022/12/02 10:39:29;;;;;;;59.63;24.10;;;3.40;99.90;;;;;;5066438;28;20217;-79
2022/12/02 10:42:06;;;;;;;60.97;25.88;;;3.40;99.90;;;;;;5058444;28;20186;-74
2022/12/02 10:44:43;;;;;;;63.47;26.13;;;3.40;99.90;;;;;;5061799;28;20195;-77
2022/12/02 10:47:18;;;;;;;60.00;24.45;;;3.40;99.90;;;;;;5063320;28;20174;-75
2022/12/02 10:49:55;;;;;;;61.22;24.75;;;3.40;99.90;;;;;;5066280;28;20282;-75
2022/12/02 10:52:36;;;;;;;56.85;24.77;;;3.40;99.90;;;;;;5058539;28;20178;-77
2022/12/02 10:55:04;;;;;;;61.28;26.17;;;3.40;99.90;;;;;;5055756;28;20178;-74
2022/12/02 10:57:32;;;;;;;58.88;26.65;;;3.40;99.90;;;;;;5071939;28;20216;-74
2022/12/02 11:00:03;;;;;;;64.43;28.10;;;3.50;99.90;;;;;;5068731;28;20178;-75
2022/12/02 11:02:42;;;;;;;62.20;28.58;;;3.50;99.90;;;;;;5059198;28;20209;-75
2022/12/02 11:05:30;;;;;;;64.10;28.95;;;3.50;99.90;;;;;;5073497;28;20174;-74
2022/12/02 11:08:17;;;;;;;60.85;26.83;;;3.50;99.90;;;;;;5068171;28;20171;-74
2022/12/02 11:10:45;;;;;;;62.25;26.88;;;3.50;99.90;;;;;;5079994;28;20248;-75
2022/12/02 11:13:11;;;;;;;62.80;27.40;;;3.50;99.90;;;;;;5065947;28;20309;-75
2022/12/02 11:15:47;;;;;;;68.10;28.85;;;3.50;99.90;;;;;;5071073;28;20564;-74
2022/12/02 11:18:22;;;;;;;62.78;26.55;;;3.50;99.90;;;;;;5071524;28;20197;-74
2022/12/02 11:20:52;;;;;;;65.70;29.08;;;3.40;99.90;;;;;;5066480;28;20186;-78
2022/12/02 11:23:28;;;;;;;64.68;29.17;;;3.40;99.90;;;;;;5057098;28;20244;-75
2022/12/02 11:26:11;;;;;;;66.32;30.58;;;3.40;99.90;;;;;;5063410;28;20315;-74
2022/12/02 11:28:45;;;;;;;65.75;31.33;;;3.40;99.90;;;;;;5060936;28;20179;-74
2022/12/02 11:31:13;;;;;;;69.13;33.55;;;3.40;99.90;;;;;;5067898;28;20257;-79
2022/12/02 11:33:42;;;;;;;64.65;30.33;;;3.50;99.90;;;;;;5073167;28;20244;-74
2022/12/02 11:36:08;;;;;;;68.50;33.25;;;3.50;99.90;;;;;;5056867;28;20213;-74
2022/12/02 11:38:52;;;;;;;68.78;33.22;;;3.60;99.90;;;;;;5071747;28;20639;-74
2022/12/02 11:41:22;;;;;;;68.80;33.83;;;3.50;99.90;;;;;;5070546;28;20633;-74
2022/12/02 11:43:48;;;;;;;69.22;31.73;;;3.60;99.90;;;;;;5065700;28;20238;-75
2022/12/02 11:46:16;;;;;;;65.00;32.25;;;3.60;99.90;;;;;;5055777;28;20266;-75
2022/12/02 11:48:55;;;;;;;69.47;33.42;;;3.60;99.90;;;;;;5071226;28;20262;-75
2022/12/02 11:51:34;;;;;;;67.53;32.72;;;3.60;99.90;;;;;;5070928;28;20182;-75
2022/12/02 11:54:00;;;;;;;54.58;25.45;;;3.60;99.90;;;;;;5068740;28;20381;-73
2022/12/02 11:56:33;;;;;;;67.35;31.98;;;3.60;99.90;;;;;;5068659;28;20197;-74
2022/12/02 11:58:59;;;;;;;44.28;19.98;;;3.60;99.90;;;;;;5072471;28;20171;-74
2022/12/02 12:01:25;;;;;;;63.20;32.47;;;3.60;99.90;;;;;;5072170;28;20240;-75
2022/12/02 12:03:51;;;;;;;61.67;31.25;;;3.60;99.90;;;;;;5071960;28;20214;-75
2022/12/02 12:06:25;;;;;;;54.83;26.92;;;3.50;99.90;;;;;;5067198;28;20193;-73
2022/12/02 12:08:56;;;;;;;56.75;28.17;;;3.50;99.90;;;;;;5064233;28;20183;-75
2022/12/02 12:11:25;;;;;;;62.58;31.83;;;3.50;99.90;;;;;;5056123;28;20191;-74
2022/12/02 12:13:57;;;;;;;61.33;29.88;;;3.50;99.90;;;;;;5071991;28;20263;-76
2022/12/02 12:16:23;;;;;;;63.28;29.85;;;3.60;99.90;;;;;;5057938;28;20218;-75
2022/12/02 12:18:49;;;;;;;57.55;26.92;;;3.60;99.90;;;;;;5075790;28;20202;-74
2022/12/02 12:21:31;;;;;;;58.08;26.48;;;3.60;99.90;;;;;;5073520;28;20205;-74
2022/12/02 12:24:22;;;;;;;57.80;29.25;;;3.60;99.90;;;;;;5075775;28;20221;-73
2022/12/02 12:26:50;;;;;;;57.83;28.83;;;3.60;99.90;;;;;;5065572;28;20175;-75
2022/12/02 12:29:16;;;;;;;56.00;27.27;;;3.60;99.90;;;;;;5061966;28;20277;-76
2022/12/02 12:31:43;;;;;;;49.08;24.67;;;3.60;99.90;;;;;;5062718;28;20713;-75
2022/12/02 12:34:10;;;;;;;53.60;27.50;;;3.60;99.90;;;;;;5075551;28;20178;-76
2022/12/02 12:36:37;;;;;;;51.20;25.17;;;3.60;99.90;;;;;;5067566;28;20263;-75
2022/12/02 12:39:04;;;;;;;56.92;27.05;;;3.60;99.90;;;;;;5068534;28;20221;-73
2022/12/02 12:41:30;;;;;;;48.22;25.20;;;3.60;99.90;;;;;;5073552;28;20182;-75
2022/12/02 12:43:56;;;;;;;49.55;24.60;;;3.60;99.90;;;;;;5090960;28;20569;-74
2022/12/02 12:46:21;;;;;;;50.92;24.42;;;3.60;99.90;;;;;;5071325;28;20191;-78
2022/12/02 12:48:47;;;;;;;54.95;27.90;;;3.60;99.90;;;;;;5063797;28;20195;-78